Time;durP1;ratioP1;P1;durP2;ratioP2;P2;SDS_P1;SDS_P2;PMS_P1;PMS_P2;Temp;Humidity;BMP_temperature;BMP_pressure;BME280_temperature;BME280_humidity;BME280_pressure;Samples;Min_cycle;Max_cycle;Signal;HPM_P1;HPM_P2
2023/03/18 00:01:03;;;;;;;7.90;5.75;;;13.60;96.90;;;;;;5034795;28;20287;-75
2023/03/18 00:03:32;;;;;;;6.72;5.07;;;13.70;96.90;;;;;;5035084;28;20231;-73
2023/03/18 00:06:06;;;;;;;9.27;6.03;;;13.70;96.80;;;;;;5027076;28;20200;-75
2023/03/18 00:08:33;;;;;;;9.10;5.82;;;13.60;97.00;;;;;;5039985;28;20719;-78
2023/03/18 00:11:01;;;;;;;7.35;5.18;;;13.60;97.20;;;;;;5034884;28;20193;-76
2023/03/18 00:13:28;;;;;;;6.72;4.88;;;13.60;97.20;;;;;;5032223;28;20220;-74
2023/03/18 00:15:56;;;;;;;13.25;5.82;;;13.60;97.20;;;;;;5033919;28;20196;-76
2023/03/18 00:18:23;;;;;;;6.70;5.00;;;13.60;97.20;;;;;;5034615;28;20634;-77
2023/03/18 00:20:50;;;;;;;9.23;5.28;;;13.60;97.60;;;;;;5035762;28;20248;-76
2023/03/18 00:23:18;;;;;;;9.40;5.28;;;13.60;97.50;;;;;;5035986;28;20228;-79
2023/03/18 00:25:47;;;;;;;7.05;5.60;;;13.60;97.70;;;;;;5034115;28;20236;-75
2023/03/18 00:28:14;;;;;;;5.60;4.45;;;13.60;97.60;;;;;;5035106;28;20373;-76
2023/03/18 00:30:41;;;;;;;8.10;4.90;;;13.60;97.80;;;;;;5033583;28;20631;-77
2023/03/18 00:33:11;;;;;;;13.20;4.35;;;13.60;97.90;;;;;;5033757;28;20279;-78
2023/03/18 00:35:38;;;;;;;7.13;5.10;;;13.60;98.00;;;;;;5025849;28;20215;-76
2023/03/18 00:38:07;;;;;;;5.95;4.55;;;13.50;98.20;;;;;;5035857;28;20287;-77
2023/03/18 00:40:52;;;;;;;9.32;4.18;;;13.40;98.40;;;;;;5033471;28;20204;-79
2023/03/18 00:43:21;;;;;;;6.03;4.80;;;13.50;98.70;;;;;;5036487;28;20306;-76
2023/03/18 00:45:50;;;;;;;5.22;4.20;;;13.40;99.30;;;;;;5034979;28;20208;-74
2023/03/18 00:48:18;;;;;;;7.22;4.15;;;13.30;99.60;;;;;;5033178;28;20212;-76
2023/03/18 00:50:45;;;;;;;5.30;4.00;;;13.20;99.90;;;;;;5034688;28;20197;-78
2023/03/18 00:53:13;;;;;;;5.80;5.20;;;13.20;99.90;;;;;;5034107;28;20220;-76
2023/03/18 00:56:34;;;;;;;9.88;4.82;;;13.20;99.90;;;;;;5046362;28;20662;-77
2023/03/18 00:59:01;;;;;;;9.23;4.65;;;13.30;99.90;;;;;;5028501;28;20231;-75
2023/03/18 01:01:30;;;;;;;10.52;4.95;;;13.20;99.90;;;;;;5034679;28;20204;-75
2023/03/18 01:03:58;;;;;;;6.68;5.93;;;13.30;99.90;;;;;;5030668;28;20303;-76
2023/03/18 01:06:35;;;;;;;11.23;6.00;;;13.20;99.90;;;;;;5029407;28;20659;-76
2023/03/18 01:09:04;;;;;;;5.78;4.97;;;13.20;99.90;;;;;;5033218;28;20234;-73
2023/03/18 01:12:13;;;;;;;8.63;5.07;;;13.20;99.90;;;;;;5033367;28;20204;-76
2023/03/18 01:14:40;;;;;;;8.18;5.15;;;13.20;99.90;;;;;;5035423;28;20552;-73
2023/03/18 01:17:24;;;;;;;7.60;4.30;;;13.20;99.90;;;;;;5036976;28;20561;-75
2023/03/18 01:19:55;;;;;;;6.15;4.68;;;13.30;99.90;;;;;;5025857;28;20219;-79
2023/03/18 01:22:22;;;;;;;8.38;3.80;;;13.30;99.90;;;;;;5034388;28;20204;-76
2023/03/18 01:24:59;;;;;;;9.93;4.30;;;13.20;99.90;;;;;;5035018;28;20215;-77
2023/03/18 01:27:26;;;;;;;6.25;4.55;;;13.30;99.90;;;;;;5034152;28;20231;-77
2023/03/18 01:30:13;;;;;;;6.70;3.97;;;13.30;99.90;;;;;;5033365;28;20291;-75
2023/03/18 01:32:42;;;;;;;7.75;4.75;;;13.40;99.90;;;;;;5034207;28;20575;-75
2023/03/18 01:35:12;;;;;;;7.85;5.30;;;13.30;99.90;;;;;;5034735;28;20318;-76
2023/03/18 01:37:39;;;;;;;11.30;5.15;;;13.30;99.90;;;;;;5034494;28;20218;-77
2023/03/18 01:40:08;;;;;;;10.68;5.40;;;13.30;99.90;;;;;;5025857;28;20200;-77
2023/03/18 01:42:36;;;;;;;10.18;5.40;;;13.20;99.90;;;;;;5034829;28;20208;-77
2023/03/18 01:45:18;;;;;;;8.85;4.30;;;13.10;99.90;;;;;;5037244;28;20315;-76
2023/03/18 01:47:46;;;;;;;5.63;4.25;;;13.10;99.90;;;;;;5035421;28;20208;-76
2023/03/18 01:50:18;;;;;;;4.85;3.95;;;13.10;99.90;;;;;;5033464;28;20208;-76
2023/03/18 01:52:48;;;;;;;7.70;4.82;;;13.10;99.90;;;;;;5030651;28;20297;-76
2023/03/18 01:55:19;;;;;;;10.23;5.38;;;13.00;99.90;;;;;;5034188;28;20208;-76
2023/03/18 01:57:48;;;;;;;7.93;5.50;;;13.00;99.90;;;;;;5027734;28;20203;-76
2023/03/18 02:00:16;;;;;;;10.63;5.75;;;12.70;99.90;;;;;;5027028;28;20211;-74
2023/03/18 02:02:45;;;;;;;8.43;4.75;;;12.70;99.90;;;;;;5033851;28;20229;-76
2023/03/18 02:05:17;;;;;;;9.68;6.00;;;12.60;99.90;;;;;;5026450;28;20200;-76
2023/03/18 02:07:46;;;;;;;11.23;6.18;;;12.50;99.90;;;;;;5030646;28;20244;-74
2023/03/18 02:10:18;;;;;;;9.07;5.18;;;12.50;99.90;;;;;;5032146;28;20670;-75
2023/03/18 02:12:49;;;;;;;8.50;5.60;;;12.50;99.90;;;;;;5032408;28;20219;-75
2023/03/18 02:15:20;;;;;;;11.15;6.18;;;12.50;99.90;;;;;;5029707;28;20196;-77
2023/03/18 02:17:51;;;;;;;5.18;4.63;;;12.40;99.90;;;;;;5032455;28;20203;-77
2023/03/18 02:20:34;;;;;;;10.43;6.70;;;12.30;99.90;;;;;;5032762;28;20274;-76
2023/03/18 02:23:08;;;;;;;7.60;5.80;;;12.50;99.90;;;;;;5032389;28;20234;-75
2023/03/18 02:25:44;;;;;;;12.25;6.28;;;12.30;99.90;;;;;;5030640;28;20210;-77
2023/03/18 02:28:17;;;;;;;8.90;6.22;;;12.30;99.90;;;;;;5034008;28;20276;-77
2023/03/18 02:30:48;;;;;;;9.57;5.93;;;12.40;99.90;;;;;;5031849;28;20543;-78
2023/03/18 02:33:20;;;;;;;11.00;6.05;;;12.40;99.90;;;;;;5032914;28;20309;-75
2023/03/18 02:35:53;;;;;;;9.45;7.60;;;12.40;99.90;;;;;;5036200;28;20226;-77
2023/03/18 02:38:20;;;;;;;8.48;5.25;;;12.30;99.90;;;;;;5035931;28;20211;-78
2023/03/18 02:40:47;;;;;;;7.07;6.30;;;12.20;99.90;;;;;;5030645;28;20198;-76
2023/03/18 02:43:20;;;;;;;7.75;5.57;;;12.20;99.90;;;;;;5030714;28;20701;-75
2023/03/18 02:46:00;;;;;;;7.50;5.80;;;12.10;99.90;;;;;;5029960;28;20245;-74
2023/03/18 02:48:31;;;;;;;7.80;5.38;;;12.10;99.90;;;;;;5029568;28;20289;-73
2023/03/18 02:50:59;;;;;;;14.50;7.57;;;12.10;99.90;;;;;;5030738;28;20211;-75
2023/03/18 02:53:26;;;;;;;8.07;6.13;;;12.20;99.90;;;;;;5028856;28;20230;-77
2023/03/18 02:55:53;;;;;;;8.60;6.15;;;12.20;99.90;;;;;;5029297;28;20203;-75
2023/03/18 02:58:21;;;;;;;9.23;6.47;;;12.20;99.90;;;;;;5031613;28;20234;-77
2023/03/18 03:00:48;;;;;;;8.13;5.82;;;12.10;99.90;;;;;;5028216;28;20211;-74
2023/03/18 03:03:15;;;;;;;8.30;6.15;;;12.10;99.90;;;;;;5031624;28;20593;-77
2023/03/18 03:05:42;;;;;;;12.98;6.65;;;12.20;99.90;;;;;;5034769;28;20322;-76
2023/03/18 03:08:10;;;;;;;7.80;6.60;;;12.30;99.90;;;;;;5037573;28;20287;-76
2023/03/18 03:10:38;;;;;;;15.32;7.20;;;12.20;99.90;;;;;;5036411;28;20649;-75
2023/03/18 03:13:06;;;;;;;13.27;7.13;;;12.20;99.90;;;;;;5036600;28;20310;-76
2023/03/18 03:15:34;;;;;;;9.10;6.10;;;12.30;99.90;;;;;;5036043;28;20290;-78
2023/03/18 03:18:02;;;;;;;8.68;6.43;;;12.20;99.90;;;;;;5032502;28;20207;-77
2023/03/18 03:20:31;;;;;;;12.07;7.65;;;12.20;99.90;;;;;;5032718;28;20216;-74
2023/03/18 03:22:58;;;;;;;11.40;6.82;;;12.20;99.90;;;;;;5042175;28;20237;-73
2023/03/18 03:25:26;;;;;;;12.45;7.15;;;12.20;99.90;;;;;;5045465;28;20318;-73
2023/03/18 03:27:54;;;;;;;8.20;6.40;;;12.20;99.90;;;;;;5042492;28;20201;-72
2023/03/18 03:30:22;;;;;;;12.30;8.00;;;12.30;99.90;;;;;;5041365;28;20220;-75
2023/03/18 03:32:51;;;;;;;9.48;7.43;;;12.30;99.90;;;;;;5041503;28;20247;-73
2023/03/18 03:35:19;;;;;;;14.85;7.68;;;12.30;99.90;;;;;;5042607;28;20209;-73
2023/03/18 03:37:46;;;;;;;13.55;6.88;;;12.30;99.90;;;;;;5035924;28;20226;-76
2023/03/18 03:40:15;;;;;;;9.55;7.55;;;12.20;99.90;;;;;;5035065;28;20300;-74
2023/03/18 03:42:43;;;;;;;10.18;6.88;;;12.20;99.90;;;;;;5035913;28;20274;-74
2023/03/18 03:45:12;;;;;;;12.52;7.90;;;12.30;99.90;;;;;;5034437;28;20319;-78
2023/03/18 03:47:39;;;;;;;14.00;7.38;;;12.20;99.90;;;;;;5035784;28;20250;-78
2023/03/18 03:50:10;;;;;;;11.63;8.13;;;12.20;99.90;;;;;;5032284;28;20310;-75
2023/03/18 03:52:38;;;;;;;8.15;6.20;;;12.20;99.90;;;;;;5033150;28;20208;-77
2023/03/18 03:55:06;;;;;;;15.38;8.10;;;12.20;99.90;;;;;;5043855;28;20238;-74
2023/03/18 03:57:34;;;;;;;13.20;8.65;;;12.20;99.90;;;;;;5036162;28;20745;-75
2023/03/18 04:00:01;;;;;;;9.80;8.52;;;12.10;99.90;;;;;;5036324;28;20228;-75
2023/03/18 04:02:28;;;;;;;8.90;7.38;;;12.00;99.90;;;;;;5034601;28;20298;-77
2023/03/18 04:04:55;;;;;;;10.13;7.78;;;12.00;99.90;;;;;;5035261;28;20208;-77
2023/03/18 04:07:24;;;;;;;10.10;6.97;;;11.90;99.90;;;;;;5035205;28;20287;-73
2023/03/18 04:09:51;;;;;;;10.73;7.20;;;12.00;99.90;;;;;;5028387;28;20233;-75
2023/03/18 04:12:19;;;;;;;13.98;7.88;;;11.90;99.90;;;;;;5034708;28;20211;-77
2023/03/18 04:14:46;;;;;;;13.43;8.50;;;11.90;99.90;;;;;;5034352;28;20290;-75
2023/03/18 04:17:14;;;;;;;13.13;8.15;;;12.00;99.90;;;;;;5032191;28;20207;-76
2023/03/18 04:19:41;;;;;;;12.98;8.43;;;12.00;99.90;;;;;;5026433;28;20203;-74
2023/03/18 04:22:08;;;;;;;11.73;8.00;;;12.00;99.90;;;;;;5029370;28;20206;-77
2023/03/18 04:24:37;;;;;;;10.95;7.30;;;11.90;99.90;;;;;;5032004;28;20685;-74
2023/03/18 04:27:04;;;;;;;10.15;7.75;;;12.00;99.90;;;;;;5030198;28;20278;-76
2023/03/18 04:29:32;;;;;;;9.93;7.93;;;12.00;99.90;;;;;;5043273;28;20279;-75
2023/03/18 04:31:59;;;;;;;12.45;9.18;;;11.90;99.90;;;;;;5043946;28;20681;-78
2023/03/18 04:34:26;;;;;;;15.18;8.98;;;11.90;99.90;;;;;;5036108;28;20311;-76
2023/03/18 04:36:54;;;;;;;12.13;8.80;;;11.90;99.90;;;;;;5043129;28;20265;-76
2023/03/18 04:39:21;;;;;;;11.10;8.38;;;11.80;99.90;;;;;;5036955;28;20202;-73
2023/03/18 04:41:50;;;;;;;11.02;8.50;;;11.80;99.90;;;;;;5042592;28;20620;-74
2023/03/18 04:44:36;;;;;;;12.15;7.55;;;11.80;99.90;;;;;;5035523;28;20238;-77
2023/03/18 04:47:03;;;;;;;11.52;7.55;;;11.80;99.90;;;;;;5034981;28;20256;-74
2023/03/18 04:49:30;;;;;;;13.38;8.07;;;11.80;99.90;;;;;;5034157;28;20247;-73
2023/03/18 04:51:57;;;;;;;12.90;9.05;;;11.70;99.90;;;;;;5034235;28;20206;-76
2023/03/18 04:54:24;;;;;;;14.65;9.35;;;11.60;99.90;;;;;;5030770;28;20267;-74
2023/03/18 04:56:52;;;;;;;8.35;7.20;;;11.60;99.90;;;;;;5038128;28;20285;-75
2023/03/18 04:59:19;;;;;;;12.25;9.60;;;11.60;99.90;;;;;;5031178;28;20203;-74
2023/03/18 05:01:46;;;;;;;10.43;8.68;;;11.60;99.90;;;;;;5031270;28;20512;-74
2023/03/18 05:04:13;;;;;;;11.88;8.90;;;11.60;99.90;;;;;;5035500;28;20626;-74
2023/03/18 05:06:40;;;;;;;11.88;7.82;;;11.60;99.90;;;;;;5028414;28;20205;-74
2023/03/18 05:09:08;;;;;;;13.27;8.98;;;11.60;99.90;;;;;;5033854;28;20230;-74
2023/03/18 05:11:35;;;;;;;10.73;9.13;;;11.70;99.90;;;;;;5022669;28;20218;-74
2023/03/18 05:14:04;;;;;;;12.75;9.23;;;11.60;99.90;;;;;;5030526;28;20228;-74
2023/03/18 05:16:31;;;;;;;15.02;8.80;;;11.60;99.90;;;;;;5030252;28;20611;-74
2023/03/18 05:18:58;;;;;;;13.95;9.02;;;11.60;99.90;;;;;;5023683;28;20217;-74
2023/03/18 05:21:25;;;;;;;14.70;9.32;;;11.50;99.90;;;;;;5028704;28;20243;-72
2023/03/18 05:23:52;;;;;;;12.35;8.80;;;11.60;99.90;;;;;;5030262;28;20604;-75
2023/03/18 05:26:19;;;;;;;12.13;9.68;;;11.60;99.90;;;;;;5030140;28;20721;-76
2023/03/18 05:28:47;;;;;;;12.88;8.10;;;11.60;99.90;;;;;;5026635;28;20226;-74
2023/03/18 05:31:16;;;;;;;12.82;8.95;;;11.50;99.90;;;;;;5034165;28;20217;-74
2023/03/18 05:33:43;;;;;;;15.20;9.57;;;11.50;99.90;;;;;;5033698;28;20238;-76
2023/03/18 05:36:10;;;;;;;17.00;9.98;;;11.50;99.90;;;;;;5032696;28;20269;-75
2023/03/18 05:38:37;;;;;;;12.25;8.65;;;11.40;99.90;;;;;;5027090;28;20208;-75
2023/03/18 05:41:05;;;;;;;17.70;10.48;;;11.40;99.90;;;;;;5029184;28;20202;-75
2023/03/18 05:43:32;;;;;;;12.05;9.35;;;11.30;99.90;;;;;;5030533;28;20227;-73
2023/03/18 05:45:59;;;;;;;12.98;9.35;;;11.30;99.90;;;;;;5028273;28;20287;-73
2023/03/18 05:48:28;;;;;;;11.48;9.27;;;11.30;99.90;;;;;;5024523;28;20230;-75
2023/03/18 05:50:57;;;;;;;14.73;10.65;;;11.40;99.90;;;;;;5027526;28;20308;-74
2023/03/18 05:53:25;;;;;;;12.73;8.88;;;11.40;99.90;;;;;;5024878;28;20227;-73
2023/03/18 05:55:52;;;;;;;14.52;10.55;;;11.40;99.90;;;;;;5032773;28;20209;-75
2023/03/18 05:58:19;;;;;;;12.80;8.68;;;11.30;99.90;;;;;;5034156;28;20294;-76
2023/03/18 06:00:46;;;;;;;13.07;8.65;;;11.40;99.90;;;;;;5032831;28;20207;-75
2023/03/18 06:03:13;;;;;;;17.17;9.77;;;11.40;99.90;;;;;;5032965;28;20223;-73
2023/03/18 06:05:42;;;;;;;14.73;10.52;;;11.50;99.90;;;;;;5032098;28;20200;-73
2023/03/18 06:08:09;;;;;;;15.25;9.43;;;11.50;99.90;;;;;;5032245;28;20337;-74
2023/03/18 06:10:37;;;;;;;11.93;9.90;;;11.60;99.90;;;;;;5031544;28;20620;-75
2023/03/18 06:13:04;;;;;;;15.35;10.20;;;11.70;99.90;;;;;;5031101;28;20632;-75
2023/03/18 06:15:32;;;;;;;12.05;9.75;;;11.60;99.90;;;;;;5033102;28;20234;-76
2023/03/18 06:17:59;;;;;;;13.45;10.30;;;11.60;99.90;;;;;;5031709;28;20206;-76
2023/03/18 06:20:26;;;;;;;12.88;9.40;;;11.60;99.90;;;;;;5032420;28;20210;-77
2023/03/18 06:22:54;;;;;;;13.63;9.52;;;11.70;99.90;;;;;;5032658;28;20309;-77
2023/03/18 06:25:22;;;;;;;14.82;10.05;;;11.60;99.90;;;;;;5032696;28;20287;-77
2023/03/18 06:27:49;;;;;;;12.10;9.90;;;11.60;99.90;;;;;;5027533;28;20477;-73
2023/03/18 06:30:17;;;;;;;14.40;10.80;;;11.70;99.90;;;;;;5031270;28;20738;-76
2023/03/18 06:32:45;;;;;;;15.10;10.95;;;11.70;99.90;;;;;;5032103;28;20295;-78
2023/03/18 06:35:13;;;;;;;13.70;9.65;;;11.70;99.90;;;;;;5032503;28;20253;-75
2023/03/18 06:37:40;;;;;;;17.75;10.48;;;11.70;99.90;;;;;;5032104;28;20669;-76
2023/03/18 06:40:11;;;;;;;13.93;9.27;;;11.60;99.90;;;;;;5034060;28;20280;-74
2023/03/18 06:42:38;;;;;;;13.43;9.50;;;11.70;99.90;;;;;;5036301;28;20201;-75
2023/03/18 06:45:06;;;;;;;13.27;10.27;;;11.70;99.90;;;;;;5036770;28;20571;-75
2023/03/18 06:47:33;;;;;;;16.02;11.05;;;11.70;99.90;;;;;;5036316;28;20584;-75
2023/03/18 06:50:00;;;;;;;19.45;10.63;;;11.70;99.90;;;;;;5039304;28;20570;-73
2023/03/18 06:52:27;;;;;;;15.48;11.27;;;11.60;99.90;;;;;;5037088;28;20232;-76
2023/03/18 06:54:54;;;;;;;14.55;10.15;;;11.60;99.90;;;;;;5036750;28;20656;-75
2023/03/18 06:57:23;;;;;;;15.82;12.35;;;11.60;99.90;;;;;;5036960;28;20303;-77
2023/03/18 06:59:51;;;;;;;16.40;11.70;;;11.50;99.90;;;;;;5034902;28;20203;-72
2023/03/18 07:02:18;;;;;;;18.52;12.23;;;11.60;99.90;;;;;;5032849;28;20667;-74
2023/03/18 07:04:47;;;;;;;19.67;12.00;;;11.60;99.90;;;;;;5033411;28;20301;-77
2023/03/18 07:07:15;;;;;;;19.58;12.63;;;11.60;99.90;;;;;;5032101;28;20210;-75
2023/03/18 07:09:43;;;;;;;20.90;13.68;;;11.70;99.90;;;;;;5031993;28;20303;-75
2023/03/18 07:12:12;;;;;;;15.85;12.20;;;11.70;99.90;;;;;;5032639;28;20197;-73
2023/03/18 07:14:40;;;;;;;20.75;13.10;;;11.80;99.90;;;;;;5031349;28;20620;-75
2023/03/18 07:17:10;;;;;;;16.05;13.18;;;11.90;99.90;;;;;;5034674;28;20662;-75
2023/03/18 07:19:37;;;;;;;17.75;11.32;;;12.00;99.90;;;;;;5032170;28;20622;-75
2023/03/18 07:22:04;;;;;;;16.25;11.07;;;12.10;99.90;;;;;;5036200;28;20196;-73
2023/03/18 07:24:37;;;;;;;20.95;12.63;;;12.10;99.90;;;;;;5033358;28;20234;-75
2023/03/18 07:27:05;;;;;;;15.02;12.23;;;12.30;99.90;;;;;;5032202;28;20289;-74
2023/03/18 07:29:33;;;;;;;22.33;15.30;;;12.30;99.90;;;;;;5032964;28;20236;-75
2023/03/18 07:32:02;;;;;;;16.67;12.93;;;12.40;99.90;;;;;;5031591;28;20286;-75
2023/03/18 07:34:30;;;;;;;17.42;13.02;;;12.40;99.90;;;;;;5031658;28;20235;-73
2023/03/18 07:36:57;;;;;;;19.55;13.65;;;12.40;99.90;;;;;;5032722;28;20208;-75
2023/03/18 07:39:25;;;;;;;15.45;13.23;;;12.50;99.90;;;;;;5032740;28;20200;-72
2023/03/18 07:41:51;;;;;;;18.58;12.40;;;12.60;99.90;;;;;;5029124;28;20306;-75
2023/03/18 07:44:21;;;;;;;17.80;12.13;;;12.70;99.90;;;;;;5031409;28;20297;-73
2023/03/18 07:46:48;;;;;;;16.13;13.50;;;12.60;99.90;;;;;;5029532;28;20195;-72
2023/03/18 07:49:16;;;;;;;25.23;14.45;;;12.60;99.90;;;;;;5031579;28;20277;-76
2023/03/18 07:51:43;;;;;;;20.27;14.88;;;12.50;99.90;;;;;;5029247;28;20712;-73
2023/03/18 07:54:10;;;;;;;18.70;14.10;;;12.40;99.90;;;;;;5028270;28;20224;-76
2023/03/18 07:56:37;;;;;;;15.55;13.35;;;12.40;99.90;;;;;;5032971;28;20229;-76
2023/03/18 07:59:04;;;;;;;16.35;12.15;;;12.40;99.90;;;;;;5026575;28;20389;-74
2023/03/18 08:01:31;;;;;;;18.13;12.57;;;12.50;99.90;;;;;;5033037;28;20214;-70
2023/03/18 08:03:58;;;;;;;19.58;14.85;;;12.50;99.90;;;;;;5033893;28;20222;-74
2023/03/18 08:06:28;;;;;;;17.95;14.02;;;12.60;99.90;;;;;;5033929;28;20241;-75
2023/03/18 08:09:06;;;;;;;23.08;12.35;;;12.60;99.90;;;;;;5033584;28;20205;-74
2023/03/18 08:11:34;;;;;;;17.27;13.25;;;12.70;99.90;;;;;;5030767;28;20220;-75
2023/03/18 08:14:01;;;;;;;20.10;13.32;;;12.70;99.90;;;;;;5030932;28;20224;-77
2023/03/18 08:16:27;;;;;;;15.82;10.90;;;12.70;99.90;;;;;;5034413;28;20754;-74
2023/03/18 08:18:54;;;;;;;20.77;12.98;;;12.80;99.90;;;;;;5033977;28;20291;-75
2023/03/18 08:21:21;;;;;;;20.35;11.90;;;12.80;99.90;;;;;;5033558;28;20235;-76
2023/03/18 08:23:50;;;;;;;17.73;11.70;;;12.90;99.90;;;;;;5036441;28;20287;-71
2023/03/18 08:26:17;;;;;;;18.38;12.40;;;13.10;99.90;;;;;;5032571;28;20674;-72
2023/03/18 08:28:44;;;;;;;20.52;13.00;;;13.20;99.90;;;;;;5033839;28;20232;-76
2023/03/18 08:31:13;;;;;;;23.17;15.40;;;13.20;99.90;;;;;;5033256;28;20223;-75
2023/03/18 08:33:40;;;;;;;20.23;12.20;;;13.40;99.90;;;;;;5032958;28;20306;-72
2023/03/18 08:36:10;;;;;;;24.90;13.82;;;13.50;99.90;;;;;;5031004;28;20197;-73
2023/03/18 08:38:38;;;;;;;16.60;13.90;;;13.50;99.90;;;;;;5031559;28;20655;-77
2023/03/18 08:41:08;;;;;;;17.48;14.00;;;13.50;99.90;;;;;;5023354;28;20205;-74
2023/03/18 08:43:35;;;;;;;19.90;12.45;;;13.30;99.90;;;;;;5025185;28;20629;-72
2023/03/18 08:46:05;;;;;;;15.02;10.77;;;13.20;99.90;;;;;;5031732;28;20200;-76
2023/03/18 08:48:33;;;;;;;15.55;11.98;;;13.10;99.90;;;;;;5025458;28;20248;-77
2023/03/18 08:51:02;;;;;;;16.23;12.38;;;13.00;99.90;;;;;;5033495;28;20212;-77
2023/03/18 08:53:30;;;;;;;20.83;13.77;;;13.10;99.90;;;;;;5033466;28;20228;-74
2023/03/18 08:55:57;;;;;;;17.25;12.85;;;13.20;99.90;;;;;;5029783;28;20558;-74
2023/03/18 08:58:26;;;;;;;18.88;12.30;;;13.20;99.90;;;;;;5033441;28;20836;-77
2023/03/18 09:00:55;;;;;;;25.55;13.65;;;13.30;99.90;;;;;;5030343;28;20545;-77
2023/03/18 09:03:23;;;;;;;20.00;12.13;;;13.40;99.90;;;;;;5035105;28;20315;-75
2023/03/18 09:05:57;;;;;;;16.77;11.88;;;13.50;99.90;;;;;;5038052;28;20203;-75
2023/03/18 09:08:24;;;;;;;16.33;13.48;;;13.50;99.90;;;;;;5036023;28;20635;-75
2023/03/18 09:10:53;;;;;;;20.67;13.52;;;13.60;99.90;;;;;;5032454;28;20243;-75
2023/03/18 09:13:20;;;;;;;18.15;14.88;;;13.60;99.90;;;;;;5036159;28;20227;-79
2023/03/18 09:15:50;;;;;;;14.43;12.50;;;13.50;99.90;;;;;;5033338;28;20724;-76
2023/03/18 09:18:21;;;;;;;18.13;13.45;;;13.40;99.90;;;;;;5035246;28;20204;-75
2023/03/18 09:20:49;;;;;;;22.23;14.65;;;13.50;99.90;;;;;;5040118;28;20227;-76
2023/03/18 09:23:17;;;;;;;18.60;11.63;;;13.70;99.90;;;;;;5045758;28;20219;-76
2023/03/18 09:25:45;;;;;;;17.25;12.65;;;13.90;99.90;;;;;;5043675;28;20211;-76
2023/03/18 09:28:13;;;;;;;16.40;12.65;;;14.10;99.90;;;;;;5036814;28;20209;-75
2023/03/18 09:30:40;;;;;;;14.35;11.48;;;14.20;99.90;;;;;;5038825;28;20248;-78
2023/03/18 09:33:10;;;;;;;19.02;13.35;;;14.40;99.90;;;;;;5030469;28;20224;-75
2023/03/18 09:35:37;;;;;;;19.10;14.05;;;14.30;99.90;;;;;;5033165;28;20703;-76
2023/03/18 09:38:05;;;;;;;21.92;13.35;;;14.50;99.90;;;;;;5033230;28;20615;-76
2023/03/18 09:40:34;;;;;;;17.25;13.35;;;14.80;99.90;;;;;;5032545;28;20620;-76
2023/03/18 09:43:14;;;;;;;21.25;14.32;;;14.80;99.90;;;;;;5034754;28;20256;-73
2023/03/18 09:45:50;;;;;;;17.55;13.00;;;14.80;99.90;;;;;;5035933;28;20532;-75
2023/03/18 09:48:42;;;;;;;16.67;12.35;;;14.70;99.90;;;;;;5028566;28;20240;-75
2023/03/18 09:51:22;;;;;;;17.37;13.43;;;15.10;99.90;;;;;;5026281;28;20227;-77
2023/03/18 09:53:55;;;;;;;15.20;12.97;;;15.80;99.90;;;;;;5028744;28;20474;-78
2023/03/18 09:56:26;;;;;;;19.33;12.30;;;16.40;99.90;;;;;;5032013;28;22047;-75
2023/03/18 09:58:58;;;;;;;19.33;11.87;;;17.20;99.90;;;;;;5030414;28;20443;-77
2023/03/18 10:01:28;;;;;;;22.30;14.10;;;18.40;99.90;;;;;;5035244;28;20530;-73
2023/03/18 10:04:01;;;;;;;16.23;12.00;;;18.70;99.90;;;;;;5036291;28;20463;-75
2023/03/18 10:06:28;;;;;;;16.70;12.00;;;19.00;99.90;;;;;;5028329;28;20452;-73
2023/03/18 10:09:13;;;;;;;20.13;12.07;;;19.90;99.90;;;;;;5031802;28;20490;-77
2023/03/18 10:11:45;;;;;;;16.20;13.40;;;20.00;99.40;;;;;;5026662;28;20491;-74
2023/03/18 10:14:36;;;;;;;17.80;11.50;;;20.90;99.10;;;;;;5031814;28;20829;-76
2023/03/18 10:17:12;;;;;;;16.63;12.40;;;21.60;97.70;;;;;;5029385;28;20476;-79
2023/03/18 10:19:46;;;;;;;18.53;12.80;;;22.20;96.50;;;;;;5025954;28;20508;-71
2023/03/18 10:22:32;;;;;;;19.27;13.37;;;21.40;95.10;;;;;;5028355;28;20440;-72
2023/03/18 10:25:13;;;;;;;17.40;15.50;;;21.80;95.70;;;;;;5029797;28;20461;-70
2023/03/18 10:27:56;;;;;;;16.80;14.60;;;20.60;96.10;;;;;;5030651;28;20453;-70
2023/03/18 10:30:46;;;;;;;20.97;15.10;;;19.40;98.50;;;;;;5025001;28;20441;-72
2023/03/18 10:33:20;;;;;;;18.23;14.80;;;18.60;99.90;;;;;;5029755;28;20475;-70
2023/03/18 10:35:59;;;;;;;24.07;17.50;;;18.00;99.90;;;;;;5032258;28;20449;-70
2023/03/18 10:38:35;;;;;;;19.80;14.53;;;17.40;99.90;;;;;;5025983;28;20447;-70
2023/03/18 10:41:04;;;;;;;20.47;15.67;;;17.40;99.90;;;;;;5023039;28;20447;-69
2023/03/18 10:43:34;;;;;;;21.63;15.57;;;17.20;99.90;;;;;;5032203;28;20507;-68
2023/03/18 10:46:04;;;;;;;23.77;17.20;;;17.10;99.90;;;;;;5026987;28;20562;-74
2023/03/18 10:48:35;;;;;;;24.77;17.17;;;17.10;99.90;;;;;;5018476;28;20459;-73
2023/03/18 10:51:12;;;;;;;28.37;19.40;;;16.80;99.90;;;;;;5028799;28;20483;-72
2023/03/18 10:53:44;;;;;;;34.23;18.90;;;16.30;99.90;;;;;;5025147;28;20493;-80
2023/03/18 10:56:13;;;;;;;23.37;17.50;;;16.40;99.90;;;;;;5035796;28;20501;-72
2023/03/18 10:58:41;;;;;;;23.70;16.53;;;16.90;99.90;;;;;;5029957;28;20532;-73
2023/03/18 11:01:11;;;;;;;25.97;17.97;;;17.10;99.90;;;;;;5031917;28;20522;-73
2023/03/18 11:03:54;;;;;;;27.03;18.90;;;16.90;99.90;;;;;;5035904;28;21004;-72
2023/03/18 11:06:28;;;;;;;26.53;19.70;;;16.60;99.90;;;;;;5029788;28;20451;-73
2023/03/18 11:09:03;;;;;;;22.20;18.53;;;17.10;99.90;;;;;;5019495;28;20452;-72
2023/03/18 11:11:33;;;;;;;23.00;18.90;;;17.20;99.90;;;;;;5029356;28;20466;-71
2023/03/18 11:14:03;;;;;;;26.87;19.37;;;17.00;99.90;;;;;;5022922;28;20502;-72
2023/03/18 11:16:42;;;;;;;25.93;19.93;;;16.80;99.90;;;;;;5027319;28;20456;-74
2023/03/18 11:19:33;;;;;;;24.37;18.00;;;16.80;99.90;;;;;;5030646;28;20461;-71
2023/03/18 11:22:16;;;;;;;28.87;18.90;;;17.00;99.90;;;;;;5025727;28;20471;-72
2023/03/18 11:24:47;;;;;;;34.53;19.07;;;17.20;99.90;;;;;;5029526;28;20576;-70
2023/03/18 11:27:37;;;;;;;24.53;19.20;;;17.50;99.90;;;;;;5027519;28;20450;-71
2023/03/18 11:30:15;;;;;;;23.43;19.77;;;17.50;99.90;;;;;;5023510;28;20758;-72
2023/03/18 11:32:52;;;;;;;22.80;19.77;;;17.10;99.90;;;;;;5033595;28;20496;-72
2023/03/18 11:35:22;;;;;;;26.53;20.73;;;17.10;99.90;;;;;;5035829;28;20779;-73
2023/03/18 11:37:51;;;;;;;28.73;21.73;;;17.00;99.90;;;;;;5027553;28;20475;-74
2023/03/18 11:40:25;;;;;;;26.50;19.00;;;17.00;99.90;;;;;;5035233;28;20814;-71
2023/03/18 11:42:56;;;;;;;25.70;19.90;;;16.90;99.90;;;;;;5028300;28;20450;-73
2023/03/18 11:45:44;;;;;;;27.40;21.07;;;17.00;99.90;;;;;;5036111;28;20844;-72
2023/03/18 11:48:17;;;;;;;26.40;19.53;;;17.10;99.90;;;;;;5035063;28;20453;-73
2023/03/18 11:50:53;;;;;;;25.03;21.20;;;17.30;99.90;;;;;;5036323;28;20509;-71
2023/03/18 11:53:34;;;;;;;22.00;19.17;;;17.30;99.90;;;;;;5033761;28;20520;-73
2023/03/18 11:56:09;;;;;;;22.80;17.43;;;17.50;99.90;;;;;;5031150;28;20458;-74
2023/03/18 11:59:04;;;;;;;29.17;19.80;;;17.50;99.90;;;;;;5032044;28;20508;-73
2023/03/18 12:01:41;;;;;;;22.13;18.73;;;17.10;99.90;;;;;;5027257;28;20447;-73
2023/03/18 12:04:44;;;;;;;23.77;19.37;;;17.00;99.90;;;;;;5032776;28;20462;-72
2023/03/18 12:07:33;;;;;;;21.87;16.83;;;17.10;99.90;;;;;;5027932;28;20456;-73
2023/03/18 12:10:19;;;;;;;24.13;19.83;;;17.30;99.90;;;;;;5032492;28;20474;-72
2023/03/18 12:13:14;;;;;;;20.77;15.40;;;17.30;99.90;;;;;;5031588;28;20486;-72
2023/03/18 12:15:51;;;;;;;17.13;15.17;;;17.80;99.90;;;;;;5026106;28;20440;-72
2023/03/18 12:18:46;;;;;;;25.67;16.50;;;17.50;99.90;;;;;;5023853;28;20810;-72
2023/03/18 12:21:30;;;;;;;18.80;14.73;;;17.40;99.90;;;;;;5024739;28;20452;-72
2023/03/18 12:24:14;;;;;;;24.13;14.50;;;17.60;99.90;;;;;;5034619;28;20580;-71
2023/03/18 12:26:51;;;;;;;15.80;13.30;;;17.50;99.90;;;;;;5032878;28;20488;-73
2023/03/18 12:29:48;;;;;;;17.60;12.37;;;17.60;99.90;;;;;;5030359;28;20449;-72
2023/03/18 12:32:26;;;;;;;21.53;13.50;;;17.50;99.90;;;;;;5030717;28;20483;-72
2023/03/18 12:35:20;;;;;;;15.77;12.87;;;17.50;99.90;;;;;;5033614;28;20450;-73
2023/03/18 12:38:07;;;;;;;17.27;12.97;;;17.30;99.90;;;;;;5036281;28;20461;-72
2023/03/18 12:40:45;;;;;;;21.60;12.97;;;17.20;99.90;;;;;;5030530;28;20463;-73
2023/03/18 12:43:27;;;;;;;16.10;13.53;;;17.20;99.90;;;;;;5019967;28;20541;-72
2023/03/18 12:46:01;;;;;;;12.70;11.10;;;17.20;99.90;;;;;;5031286;28;20446;-70
2023/03/18 12:48:32;;;;;;;17.33;11.60;;;17.30;99.90;;;;;;5036799;28;20442;-73
2023/03/18 12:51:04;;;;;;;13.27;11.87;;;17.30;99.90;;;;;;5031543;28;20455;-72
2023/03/18 12:53:35;;;;;;;18.23;11.80;;;17.40;99.90;;;;;;5030820;28;20475;-73